sensor_id;sensor_type;location;lat;lon;timestamp;pressure;altitude;pressure_sealevel;temperature
30001;BMP280;16845;48.670;9.000;2024-01-16T00:01:51;94855.56;;;0.66
30001;BMP280;16845;48.670;9.000;2024-01-16T00:04:18;94860.47;;;0.84
30001;BMP280;16845;48.670;9.000;2024-01-16T00:06:44;94860.50;;;0.73
30001;BMP280;16845;48.670;9.000;2024-01-16T00:09:13;94861.34;;;0.75
30001;BMP280;16845;48.670;9.000;2024-01-16T00:11:40;94853.81;;;1.04
30001;BMP280;16845;48.670;9.000;2024-01-16T00:14:07;94852.25;;;0.85
30001;BMP280;16845;48.670;9.000;2024-01-16T00:16:41;94858.84;;;0.77
30001;BMP280;16845;48.670;9.000;2024-01-16T00:19:08;94867.16;;;0.49
30001;BMP280;16845;48.670;9.000;2024-01-16T00:21:38;94862.13;;;0.79
30001;BMP280;16845;48.670;9.000;2024-01-16T00:24:05;94861.31;;;0.77
30001;BMP280;16845;48.670;9.000;2024-01-16T00:26:31;94862.22;;;0.58
30001;BMP280;16845;48.670;9.000;2024-01-16T00:28:58;94862.16;;;0.67
30001;BMP280;16845;48.670;9.000;2024-01-16T00:31:24;94867.94;;;0.58
30001;BMP280;16845;48.670;9.000;2024-01-16T00:33:52;94862.19;;;0.52
30001;BMP280;16845;48.670;9.000;2024-01-16T00:36:19;94863.03;;;0.55
30001;BMP280;16845;48.670;9.000;2024-01-16T00:38:45;94864.66;;;0.64
30001;BMP280;16845;48.670;9.000;2024-01-16T00:41:12;94864.56;;;0.88
30001;BMP280;16845;48.670;9.000;2024-01-16T00:43:39;94857.19;;;0.76
30001;BMP280;16845;48.670;9.000;2024-01-16T00:46:06;94850.56;;;0.96
30001;BMP280;16845;48.670;9.000;2024-01-16T00:48:32;94843.94;;;1.02
30001;BMP280;16845;48.670;9.000;2024-01-16T00:51:00;94854.78;;;0.61
30001;BMP280;16845;48.670;9.000;2024-01-16T00:53:27;94858.09;;;0.55
30001;BMP280;16845;48.670;9.000;2024-01-16T00:55:54;94870.47;;;0.40
30001;BMP280;16845;48.670;9.000;2024-01-16T00:58:21;94858.09;;;0.48
30001;BMP280;16845;48.670;9.000;2024-01-16T01:00:48;94866.25;;;0.81
30001;BMP280;16845;48.670;9.000;2024-01-16T01:03:14;94862.94;;;0.87
30001;BMP280;16845;48.670;9.000;2024-01-16T01:05:41;94858.84;;;0.83
30001;BMP280;16845;48.670;9.000;2024-01-16T01:08:09;94859.66;;;0.85
30001;BMP280;16845;48.670;9.000;2024-01-16T01:10:36;94852.22;;;0.88
30001;BMP280;16845;48.670;9.000;2024-01-16T01:13:03;94854.72;;;0.86
30001;BMP280;16845;48.670;9.000;2024-01-16T01:15:29;94856.31;;;0.99
30001;BMP280;16845;48.670;9.000;2024-01-16T01:17:56;94851.34;;;1.02
30001;BMP280;16845;48.670;9.000;2024-01-16T01:20:22;94852.94;;;1.15
30001;BMP280;16845;48.670;9.000;2024-01-16T01:22:49;94860.50;;;0.81
30001;BMP280;16845;48.670;9.000;2024-01-16T01:25:17;94860.50;;;0.81
30001;BMP280;16845;48.670;9.000;2024-01-16T01:27:44;94868.66;;;1.02
30001;BMP280;16845;48.670;9.000;2024-01-16T01:30:10;94863.81;;;0.71
30001;BMP280;16845;48.670;9.000;2024-01-16T01:32:38;94870.38;;;0.78
30001;BMP280;16845;48.670;9.000;2024-01-16T01:35:06;94870.38;;;0.85
30001;BMP280;16845;48.670;9.000;2024-01-16T01:37:32;94872.88;;;0.69
30001;BMP280;16845;48.670;9.000;2024-01-16T01:39:59;94873.56;;;1.07
30001;BMP280;16845;48.670;9.000;2024-01-16T01:42:27;94880.13;;;1.11
30001;BMP280;16845;48.670;9.000;2024-01-16T01:44:53;94876.03;;;1.11
30001;BMP280;16845;48.670;9.000;2024-01-16T01:47:20;94884.38;;;0.77
30001;BMP280;16845;48.670;9.000;2024-01-16T01:49:46;94887.63;;;0.90
30001;BMP280;16845;48.670;9.000;2024-01-16T01:52:13;94884.38;;;0.67
30001;BMP280;16845;48.670;9.000;2024-01-16T01:54:40;94886.03;;;0.80
30001;BMP280;16845;48.670;9.000;2024-01-16T01:57:07;94888.44;;;0.99
30001;BMP280;16845;48.670;9.000;2024-01-16T01:59:35;94889.25;;;0.95
30001;BMP280;16845;48.670;9.000;2024-01-16T02:02:02;94882.72;;;0.76
30001;BMP280;16845;48.670;9.000;2024-01-16T02:04:31;94895.94;;;0.59
30001;BMP280;16845;48.670;9.000;2024-01-16T02:06:57;94890.94;;;0.81
30001;BMP280;16845;48.670;9.000;2024-01-16T02:09:24;94886.75;;;1.00
30001;BMP280;16845;48.670;9.000;2024-01-16T02:11:51;94891.81;;;0.47
30001;BMP280;16845;48.670;9.000;2024-01-16T02:14:17;94882.69;;;0.82
30001;BMP280;16845;48.670;9.000;2024-01-16T02:16:46;94890.13;;;0.81
30001;BMP280;16845;48.670;9.000;2024-01-16T02:19:12;94891.84;;;0.58
30001;BMP280;16845;48.670;9.000;2024-01-16T02:21:41;94895.91;;;0.60
30001;BMP280;16845;48.670;9.000;2024-01-16T02:24:10;94890.97;;;0.65
30001;BMP280;16845;48.670;9.000;2024-01-16T02:26:37;94891.84;;;0.49
30001;BMP280;16845;48.670;9.000;2024-01-16T02:29:04;94896.72;;;0.67
30001;BMP280;16845;48.670;9.000;2024-01-16T02:31:30;94890.13;;;0.84
30001;BMP280;16845;48.670;9.000;2024-01-16T02:33:57;94897.53;;;0.84
30001;BMP280;16845;48.670;9.000;2024-01-16T02:36:24;94892.63;;;0.54
30001;BMP280;16845;48.670;9.000;2024-01-16T02:38:50;94891.81;;;0.59
30001;BMP280;16845;48.670;9.000;2024-01-16T02:41:19;94895.13;;;0.43
30001;BMP280;16845;48.670;9.000;2024-01-16T02:43:45;94898.41;;;0.36
30001;BMP280;16845;48.670;9.000;2024-01-16T02:46:12;94898.44;;;0.51
30001;BMP280;16845;48.670;9.000;2024-01-16T02:48:39;94893.44;;;0.75
30001;BMP280;16845;48.670;9.000;2024-01-16T02:51:05;94895.09;;;0.69
30001;BMP280;16845;48.670;9.000;2024-01-16T02:53:32;94898.34;;;0.81
30001;BMP280;16845;48.670;9.000;2024-01-16T02:55:58;94901.66;;;0.67
30001;BMP280;16845;48.670;9.000;2024-01-16T02:58:27;94896.78;;;0.31
30001;BMP280;16845;48.670;9.000;2024-01-16T03:00:54;94895.94;;;0.44
30001;BMP280;16845;48.670;9.000;2024-01-16T03:03:20;94900.06;;;0.42
30001;BMP280;16845;48.670;9.000;2024-01-16T03:05:47;94887.72;;;0.33
30001;BMP280;16845;48.670;9.000;2024-01-16T03:08:14;94892.66;;;0.30
30001;BMP280;16845;48.670;9.000;2024-01-16T03:10:41;94901.72;;;0.22
30001;BMP280;16845;48.670;9.000;2024-01-16T03:13:07;94907.47;;;0.46
30001;BMP280;16845;48.670;9.000;2024-01-16T03:15:35;94907.47;;;0.51
30001;BMP280;16845;48.670;9.000;2024-01-16T03:18:01;94901.69;;;0.43
30001;BMP280;16845;48.670;9.000;2024-01-16T03:20:28;94905.00;;;0.42
30001;BMP280;16845;48.670;9.000;2024-01-16T03:22:55;94900.91;;;0.21
30001;BMP280;16845;48.670;9.000;2024-01-16T03:25:21;94898.44;;;0.35
30001;BMP280;16845;48.670;9.000;2024-01-16T03:27:48;94900.09;;;0.22
30001;BMP280;16845;48.670;9.000;2024-01-16T03:30:14;94908.31;;;0.09
30001;BMP280;16845;48.670;9.000;2024-01-16T03:32:43;94900.88;;;0.11
30001;BMP280;16845;48.670;9.000;2024-01-16T03:35:09;94901.69;;;-0.21
30001;BMP280;16845;48.670;9.000;2024-01-16T03:37:37;94906.66;;;-0.20
30001;BMP280;16845;48.670;9.000;2024-01-16T03:40:05;94898.44;;;0.00
30001;BMP280;16845;48.670;9.000;2024-01-16T03:42:31;94903.38;;;0.00
30001;BMP280;16845;48.670;9.000;2024-01-16T03:44:58;94898.38;;;-0.29
30001;BMP280;16845;48.670;9.000;2024-01-16T03:47:24;94899.19;;;-0.35
30001;BMP280;16845;48.670;9.000;2024-01-16T03:49:52;94900.06;;;-0.22
30001;BMP280;16845;48.670;9.000;2024-01-16T03:52:19;94897.56;;;-0.34
30001;BMP280;16845;48.670;9.000;2024-01-16T03:54:46;94892.63;;;-0.28
30001;BMP280;16845;48.670;9.000;2024-01-16T03:57:12;94888.47;;;-0.64
30001;BMP280;16845;48.670;9.000;2024-01-16T03:59:39;94887.69;;;-0.51
30001;BMP280;16845;48.670;9.000;2024-01-16T04:02:05;94889.28;;;-0.69
30001;BMP280;16845;48.670;9.000;2024-01-16T04:04:32;94884.34;;;-0.77
30001;BMP280;16845;48.670;9.000;2024-01-16T04:07:00;94887.63;;;-0.78
30001;BMP280;16845;48.670;9.000;2024-01-16T04:09:26;94883.56;;;-0.46
30001;BMP280;16845;48.670;9.000;2024-01-16T04:11:53;94887.66;;;-0.61
30001;BMP280;16845;48.670;9.000;2024-01-16T04:14:20;94888.47;;;-0.67
30001;BMP280;16845;48.670;9.000;2024-01-16T04:16:46;94884.41;;;-0.35
30001;BMP280;16845;48.670;9.000;2024-01-16T04:19:13;94881.94;;;-0.50
30001;BMP280;16845;48.670;9.000;2024-01-16T04:21:41;94884.38;;;-0.54
30001;BMP280;16845;48.670;9.000;2024-01-16T04:24:08;94874.56;;;-0.26
30001;BMP280;16845;48.670;9.000;2024-01-16T04:26:35;94878.69;;;-0.34
30001;BMP280;16845;48.670;9.000;2024-01-16T04:29:02;94878.66;;;-0.43
30001;BMP280;16845;48.670;9.000;2024-01-16T04:31:28;94879.50;;;-0.36
30001;BMP280;16845;48.670;9.000;2024-01-16T04:33:55;94867.09;;;-0.72
30001;BMP280;16845;48.670;9.000;2024-01-16T04:36:22;94871.97;;;-0.86
30001;BMP280;16845;48.670;9.000;2024-01-16T04:38:48;94876.78;;;-1.16
30001;BMP280;16845;48.670;9.000;2024-01-16T04:41:18;94880.06;;;-1.17
30001;BMP280;16845;48.670;9.000;2024-01-16T04:43:45;94878.50;;;-1.00
30001;BMP280;16845;48.670;9.000;2024-01-16T04:46:12;94882.47;;;-1.26
30001;BMP280;16845;48.670;9.000;2024-01-16T04:48:40;94879.19;;;-1.26
30001;BMP280;16845;48.670;9.000;2024-01-16T04:51:06;94880.88;;;-1.21
30001;BMP280;16845;48.670;9.000;2024-01-16T04:53:33;94879.16;;;-1.35
30001;BMP280;16845;48.670;9.000;2024-01-16T04:55:59;94872.63;;;-1.26
30001;BMP280;16845;48.670;9.000;2024-01-16T04:58:27;94873.50;;;-1.21
30001;BMP280;16845;48.670;9.000;2024-01-16T05:00:54;94875.19;;;-1.03
30001;BMP280;16845;48.670;9.000;2024-01-16T05:03:20;94873.44;;;-1.30
30001;BMP280;16845;48.670;9.000;2024-01-16T05:05:47;94870.19;;;-1.24
30001;BMP280;16845;48.670;9.000;2024-01-16T05:08:14;94877.44;;;-1.50
30001;BMP280;16845;48.670;9.000;2024-01-16T05:10:40;94871.03;;;-1.24
30001;BMP280;16845;48.670;9.000;2024-01-16T05:13:10;94862.00;;;-1.25
30001;BMP280;16845;48.670;9.000;2024-01-16T05:15:38;94858.72;;;-1.21
30001;BMP280;16845;48.670;9.000;2024-01-16T05:18:04;94856.97;;;-1.37
30001;BMP280;16845;48.670;9.000;2024-01-16T05:20:31;94862.78;;;-1.30
30001;BMP280;16845;48.670;9.000;2024-01-16T05:22:58;94855.38;;;-1.29
30001;BMP280;16845;48.670;9.000;2024-01-16T05:25:24;94858.66;;;-1.33
30001;BMP280;16845;48.670;9.000;2024-01-16T05:27:51;94861.94;;;-1.28
30001;BMP280;16845;48.670;9.000;2024-01-16T05:30:17;94864.31;;;-1.53
30001;BMP280;16845;48.670;9.000;2024-01-16T05:32:45;94851.81;;;-1.86
30001;BMP280;16845;48.670;9.000;2024-01-16T05:35:12;94850.13;;;-1.92
30001;BMP280;16845;48.670;9.000;2024-01-16T05:37:38;94848.59;;;-1.75
30001;BMP280;16845;48.670;9.000;2024-01-16T05:40:06;94833.97;;;-1.52
30001;BMP280;16845;48.670;9.000;2024-01-16T05:42:33;94837.94;;;-1.74
30001;BMP280;16845;48.670;9.000;2024-01-16T05:44:59;94844.63;;;-1.52
30001;BMP280;16845;48.670;9.000;2024-01-16T05:47:26;94840.38;;;-1.74
30001;BMP280;16845;48.670;9.000;2024-01-16T05:49:54;94842.03;;;-1.74
30001;BMP280;16845;48.670;9.000;2024-01-16T05:52:20;94833.19;;;-1.39
30001;BMP280;16845;48.670;9.000;2024-01-16T05:54:47;94848.75;;;-1.43
30001;BMP280;16845;48.670;9.000;2024-01-16T05:57:13;94845.13;;;-2.01
30001;BMP280;16845;48.670;9.000;2024-01-16T05:59:40;94849.28;;;-1.95
30001;BMP280;16845;48.670;9.000;2024-01-16T06:02:06;94846.91;;;-1.77
30001;BMP280;16845;48.670;9.000;2024-01-16T06:04:33;94846.75;;;-2.01
30001;BMP280;16845;48.670;9.000;2024-01-16T06:07:01;94850.03;;;-2.05
30001;BMP280;16845;48.670;9.000;2024-01-16T06:09:27;94849.34;;;-1.86
30001;BMP280;16845;48.670;9.000;2024-01-16T06:11:54;94856.00;;;-1.67
30001;BMP280;16845;48.670;9.000;2024-01-16T06:14:21;94852.59;;;-1.89
30001;BMP280;16845;48.670;9.000;2024-01-16T06:16:47;94846.84;;;-1.91
30001;BMP280;16845;48.670;9.000;2024-01-16T06:19:14;94848.41;;;-2.02
30001;BMP280;16845;48.670;9.000;2024-01-16T06:21:41;94846.19;;;-1.66
30001;BMP280;16845;48.670;9.000;2024-01-16T06:24:08;94840.31;;;-1.89
30001;BMP280;16845;48.670;9.000;2024-01-16T06:26:35;94837.97;;;-1.68
30001;BMP280;16845;48.670;9.000;2024-01-16T06:29:01;94838.66;;;-1.88
30001;BMP280;16845;48.670;9.000;2024-01-16T06:31:28;94841.09;;;-1.88
30001;BMP280;16845;48.670;9.000;2024-01-16T06:33:55;94840.22;;;-1.98
30001;BMP280;16845;48.670;9.000;2024-01-16T06:36:22;94837.75;;;-2.01
30001;BMP280;16845;48.670;9.000;2024-01-16T06:38:48;94839.53;;;-1.82
30001;BMP280;16845;48.670;9.000;2024-01-16T06:41:16;94847.69;;;-1.89
30001;BMP280;16845;48.670;9.000;2024-01-16T06:43:43;94848.50;;;-1.84
30001;BMP280;16845;48.670;9.000;2024-01-16T06:46:09;94850.84;;;-2.00
30001;BMP280;16845;48.670;9.000;2024-01-16T06:48:36;94855.00;;;-1.95
30001;BMP280;16845;48.670;9.000;2024-01-16T06:51:03;94855.84;;;-1.88
30001;BMP280;16845;48.670;9.000;2024-01-16T06:53:30;94860.59;;;-2.15
30001;BMP280;16845;48.670;9.000;2024-01-16T06:55:57;94859.53;;;-2.45
30001;BMP280;16845;48.670;9.000;2024-01-16T06:58:25;94856.47;;;-2.18
30001;BMP280;16845;48.670;9.000;2024-01-16T07:00:51;94850.84;;;-2.00
30001;BMP280;16845;48.670;9.000;2024-01-16T07:03:18;94849.31;;;-1.89
30001;BMP280;16845;48.670;9.000;2024-01-16T07:05:44;94848.44;;;-1.99
30001;BMP280;16845;48.670;9.000;2024-01-16T07:08:11;94854.06;;;-2.12
30001;BMP280;16845;48.670;9.000;2024-01-16T07:10:38;94846.81;;;-1.95
30001;BMP280;16845;48.670;9.000;2024-01-16T07:13:04;94846.63;;;-2.18
30001;BMP280;16845;48.670;9.000;2024-01-16T07:15:32;94848.22;;;-2.27
30001;BMP280;16845;48.670;9.000;2024-01-16T07:17:59;94849.19;;;-2.04
30001;BMP280;16845;48.670;9.000;2024-01-16T07:20:25;94853.16;;;-2.26
30001;BMP280;16845;48.670;9.000;2024-01-16T07:22:52;94851.50;;;-2.25
30001;BMP280;16845;48.670;9.000;2024-01-16T07:25:18;94850.84;;;-2.03
30001;BMP280;16845;48.670;9.000;2024-01-16T07:27:45;94842.63;;;-2.07
30001;BMP280;16845;48.670;9.000;2024-01-16T07:30:12;94844.16;;;-2.21
30001;BMP280;16845;48.670;9.000;2024-01-16T07:32:40;94852.31;;;-2.26
30001;BMP280;16845;48.670;9.000;2024-01-16T07:35:07;94844.25;;;-2.12
30001;BMP280;16845;48.670;9.000;2024-01-16T07:37:34;94842.66;;;-2.02
30001;BMP280;16845;48.670;9.000;2024-01-16T07:40:00;94839.38;;;-2.01
30001;BMP280;16845;48.670;9.000;2024-01-16T07:42:27;94844.34;;;-1.97
30001;BMP280;16845;48.670;9.000;2024-01-16T07:44:54;94845.25;;;-1.84
30001;BMP280;16845;48.670;9.000;2024-01-16T07:47:20;94847.63;;;-1.95
30001;BMP280;16845;48.670;9.000;2024-01-16T07:49:48;94852.66;;;-1.80
30001;BMP280;16845;48.670;9.000;2024-01-16T07:52:15;94852.75;;;-1.65
30001;BMP280;16845;48.670;9.000;2024-01-16T07:54:41;94848.72;;;-1.54
30001;BMP280;16845;48.670;9.000;2024-01-16T07:57:08;94846.28;;;-1.43
30001;BMP280;16845;48.670;9.000;2024-01-16T07:59:34;94846.19;;;-1.60
30001;BMP280;16845;48.670;9.000;2024-01-16T08:02:01;94846.34;;;-1.37
30001;BMP280;16845;48.670;9.000;2024-01-16T08:04:27;94843.09;;;-1.21
30001;BMP280;16845;48.670;9.000;2024-01-16T08:06:55;94848.78;;;-1.39
30001;BMP280;16845;48.670;9.000;2024-01-16T08:09:22;94842.25;;;-1.28
30001;BMP280;16845;48.670;9.000;2024-01-16T08:11:49;94841.50;;;-1.16
30001;BMP280;16845;48.670;9.000;2024-01-16T08:14:15;94848.06;;;-1.17
30001;BMP280;16845;48.670;9.000;2024-01-16T08:16:42;94843.19;;;-1.03
30001;BMP280;16845;48.670;9.000;2024-01-16T08:19:09;94836.72;;;-0.79
30001;BMP280;16845;48.670;9.000;2024-01-16T08:21:35;94843.94;;;-1.15
30001;BMP280;16845;48.670;9.000;2024-01-16T08:24:04;94839.88;;;-1.14
30001;BMP280;16845;48.670;9.000;2024-01-16T08:26:31;94835.84;;;-0.84
30001;BMP280;16845;48.670;9.000;2024-01-16T08:28:58;94843.09;;;-1.30
30001;BMP280;16845;48.670;9.000;2024-01-16T08:31:24;94843.22;;;-0.93
30001;BMP280;16845;48.670;9.000;2024-01-16T08:33:51;94844.13;;;-0.62
30001;BMP280;16845;48.670;9.000;2024-01-16T08:36:19;94854.00;;;-0.49
30001;BMP280;16845;48.670;9.000;2024-01-16T08:38:46;94853.97;;;-0.61
30001;BMP280;16845;48.670;9.000;2024-01-16T08:41:14;94855.66;;;-0.27
30001;BMP280;16845;48.670;9.000;2024-01-16T08:43:41;94854.81;;;-0.51
30001;BMP280;16845;48.670;9.000;2024-01-16T08:46:07;94857.31;;;-0.44
30001;BMP280;16845;48.670;9.000;2024-01-16T08:48:34;94862.25;;;-0.05
30001;BMP280;16845;48.670;9.000;2024-01-16T08:51:01;94858.16;;;-0.04
30001;BMP280;16845;48.670;9.000;2024-01-16T08:53:28;94860.63;;;0.06
30001;BMP280;16845;48.670;9.000;2024-01-16T08:55:54;94858.97;;;0.23
30001;BMP280;16845;48.670;9.000;2024-01-16T08:58:22;94853.97;;;0.50
30001;BMP280;16845;48.670;9.000;2024-01-16T09:00:48;94851.56;;;0.17
30001;BMP280;16845;48.670;9.000;2024-01-16T09:03:15;94854.03;;;0.35
30001;BMP280;16845;48.670;9.000;2024-01-16T09:05:42;94853.03;;;0.90
30001;BMP280;16845;48.670;9.000;2024-01-16T09:08:08;94838.19;;;1.00
30001;BMP280;16845;48.670;9.000;2024-01-16T09:10:38;94848.88;;;1.04
30001;BMP280;16845;48.670;9.000;2024-01-16T09:13:05;94848.66;;;1.46
30001;BMP280;16845;48.670;9.000;2024-01-16T09:15:33;94841.44;;;1.07
30001;BMP280;16845;48.670;9.000;2024-01-16T09:17:59;94850.38;;;1.35
30001;BMP280;16845;48.670;9.000;2024-01-16T09:20:26;94847.09;;;1.33
30001;BMP280;16845;48.670;9.000;2024-01-16T09:22:53;94855.16;;;1.59
30001;BMP280;16845;48.670;9.000;2024-01-16T09:25:19;94854.50;;;1.33
30001;BMP280;16845;48.670;9.000;2024-01-16T09:27:46;94851.91;;;1.52
30001;BMP280;16845;48.670;9.000;2024-01-16T09:30:13;94841.06;;;1.77
30001;BMP280;16845;48.670;9.000;2024-01-16T09:32:40;94850.53;;;2.26
30001;BMP280;16845;48.670;9.000;2024-01-16T09:35:08;94835.06;;;2.89
30001;BMP280;16845;48.670;9.000;2024-01-16T09:37:35;94847.59;;;2.77
30001;BMP280;16845;48.670;9.000;2024-01-16T09:40:02;94841.72;;;2.86
30001;BMP280;16845;48.670;9.000;2024-01-16T09:42:29;94841.88;;;3.40
30001;BMP280;16845;48.670;9.000;2024-01-16T09:44:56;94834.13;;;3.64
30001;BMP280;16845;48.670;9.000;2024-01-16T09:47:22;94840.25;;;3.98
30001;BMP280;16845;48.670;9.000;2024-01-16T09:49:52;94827.66;;;4.10
30001;BMP280;16845;48.670;9.000;2024-01-16T09:52:18;94834.56;;;4.43
30001;BMP280;16845;48.670;9.000;2024-01-16T09:54:45;94834.06;;;4.23
30001;BMP280;16845;48.670;9.000;2024-01-16T09:57:12;94828.53;;;4.56
30001;BMP280;16845;48.670;9.000;2024-01-16T09:59:39;94827.31;;;5.19
30001;BMP280;16845;48.670;9.000;2024-01-16T10:02:08;94824.13;;;5.93
30001;BMP280;16845;48.670;9.000;2024-01-16T10:04:36;94815.81;;;6.27
30001;BMP280;16845;48.670;9.000;2024-01-16T10:07:05;94812.53;;;6.25
30001;BMP280;16845;48.670;9.000;2024-01-16T10:09:32;94811.59;;;5.58
30001;BMP280;16845;48.670;9.000;2024-01-16T10:11:59;94811.63;;;5.55
30001;BMP280;16845;48.670;9.000;2024-01-16T10:14:25;94809.81;;;6.01
30001;BMP280;16845;48.670;9.000;2024-01-16T10:16:56;94811.72;;;5.90
30001;BMP280;16845;48.670;9.000;2024-01-16T10:19:23;94802.09;;;5.73
30001;BMP280;16845;48.670;9.000;2024-01-16T10:22:06;94801.22;;;5.39
30001;BMP280;16845;48.670;9.000;2024-01-16T10:24:32;94801.19;;;4.56
30001;BMP280;16845;48.670;9.000;2024-01-16T10:26:59;94799.06;;;5.62
30001;BMP280;16845;48.670;9.000;2024-01-16T10:29:26;94793.63;;;5.04
30001;BMP280;16845;48.670;9.000;2024-01-16T10:32:08;94788.63;;;5.45
30001;BMP280;16845;48.670;9.000;2024-01-16T10:34:35;94790.59;;;6.39
30001;BMP280;16845;48.670;9.000;2024-01-16T10:37:02;94797.47;;;6.31
30001;BMP280;16845;48.670;9.000;2024-01-16T10:39:30;94783.69;;;6.81
30001;BMP280;16845;48.670;9.000;2024-01-16T10:42:08;94779.72;;;8.15
30001;BMP280;16845;48.670;9.000;2024-01-16T10:44:35;94777.09;;;9.85
30001;BMP280;16845;48.670;9.000;2024-01-16T10:47:10;94768.91;;;8.42
30001;BMP280;16845;48.670;9.000;2024-01-16T10:49:37;94777.13;;;8.93
30001;BMP280;16845;48.670;9.000;2024-01-16T10:52:11;94763.41;;;11.72
30001;BMP280;16845;48.670;9.000;2024-01-16T10:54:42;94754.88;;;13.76
30001;BMP280;16845;48.670;9.000;2024-01-16T10:57:09;94752.72;;;14.60
30001;BMP280;16845;48.670;9.000;2024-01-16T10:59:40;94752.50;;;15.36
30001;BMP280;16845;48.670;9.000;2024-01-16T11:02:13;94751.81;;;16.55
30001;BMP280;16845;48.670;9.000;2024-01-16T11:04:41;94760.16;;;15.48
30001;BMP280;16845;48.670;9.000;2024-01-16T11:07:08;94754.69;;;15.82
30001;BMP280;16845;48.670;9.000;2024-01-16T11:09:35;94739.72;;;16.97
30001;BMP280;16845;48.670;9.000;2024-01-16T11:12:03;94728.75;;;16.84
30001;BMP280;16845;48.670;9.000;2024-01-16T11:14:30;94724.00;;;16.92
30001;BMP280;16845;48.670;9.000;2024-01-16T11:16:58;94720.81;;;19.05
30001;BMP280;16845;48.670;9.000;2024-01-16T11:19:26;94701.28;;;21.78
30001;BMP280;16845;48.670;9.000;2024-01-16T11:22:13;94710.13;;;19.45
30001;BMP280;16845;48.670;9.000;2024-01-16T11:24:40;94712.03;;;17.32
30001;BMP280;16845;48.670;9.000;2024-01-16T11:27:08;94703.81;;;19.05
30001;BMP280;16845;48.670;9.000;2024-01-16T11:29:35;94692.63;;;15.91
30001;BMP280;16845;48.670;9.000;2024-01-16T11:32:02;94699.22;;;13.79
30001;BMP280;16845;48.670;9.000;2024-01-16T11:34:52;94703.88;;;12.24
30001;BMP280;16845;48.670;9.000;2024-01-16T11:37:26;94697.47;;;13.95
30001;BMP280;16845;48.670;9.000;2024-01-16T11:40:24;94699.44;;;13.28
30001;BMP280;16845;48.670;9.000;2024-01-16T11:42:52;94682.94;;;14.00
30001;BMP280;16845;48.670;9.000;2024-01-16T11:45:49;94693.03;;;11.16
30001;BMP280;16845;48.670;9.000;2024-01-16T11:48:16;94685.34;;;9.82
30001;BMP280;16845;48.670;9.000;2024-01-16T11:50:43;94684.59;;;11.17
30001;BMP280;16845;48.670;9.000;2024-01-16T11:53:10;94686.16;;;12.27
30001;BMP280;16845;48.670;9.000;2024-01-16T11:55:48;94673.44;;;13.28
30001;BMP280;16845;48.670;9.000;2024-01-16T11:58:35;94660.38;;;13.37
30001;BMP280;16845;48.670;9.000;2024-01-16T12:01:10;94664.59;;;11.34
30001;BMP280;16845;48.670;9.000;2024-01-16T12:03:37;94656.25;;;12.21
30001;BMP280;16845;48.670;9.000;2024-01-16T12:06:04;94648.00;;;13.63
30001;BMP280;16845;48.670;9.000;2024-01-16T12:08:30;94642.53;;;14.59
30001;BMP280;16845;48.670;9.000;2024-01-16T12:10:57;94631.22;;;13.78
30001;BMP280;16845;48.670;9.000;2024-01-16T12:13:24;94648.16;;;14.20
30001;BMP280;16845;48.670;9.000;2024-01-16T12:16:00;94636.38;;;14.35
30001;BMP280;16845;48.670;9.000;2024-01-16T12:18:27;94625.66;;;13.26
30001;BMP280;16845;48.670;9.000;2024-01-16T12:21:08;94623.84;;;15.45
30001;BMP280;16845;48.670;9.000;2024-01-16T12:23:35;94626.78;;;15.52
30001;BMP280;16845;48.670;9.000;2024-01-16T12:26:02;94619.28;;;14.68
30001;BMP280;16845;48.670;9.000;2024-01-16T12:28:29;94609.78;;;16.07
30001;BMP280;16845;48.670;9.000;2024-01-16T12:31:00;94606.94;;;16.50
30001;BMP280;16845;48.670;9.000;2024-01-16T12:33:28;94597.13;;;18.60
30001;BMP280;16845;48.670;9.000;2024-01-16T12:36:01;94594.72;;;18.24
30001;BMP280;16845;48.670;9.000;2024-01-16T12:38:28;94597.50;;;16.89
30001;BMP280;16845;48.670;9.000;2024-01-16T12:40:55;94589.00;;;18.55
30001;BMP280;16845;48.670;9.000;2024-01-16T12:43:21;94578.31;;;19.06
30001;BMP280;16845;48.670;9.000;2024-01-16T12:45:54;94576.19;;;17.04
30001;BMP280;16845;48.670;9.000;2024-01-16T12:48:24;94576.53;;;18.06
30001;BMP280;16845;48.670;9.000;2024-01-16T12:50:51;94574.34;;;19.57
30001;BMP280;16845;48.670;9.000;2024-01-16T12:53:21;94569.44;;;19.76
30001;BMP280;16845;48.670;9.000;2024-01-16T12:55:57;94568.44;;;19.99
30001;BMP280;16845;48.670;9.000;2024-01-16T12:58:24;94566.38;;;20.75
30001;BMP280;16845;48.670;9.000;2024-01-16T13:00:51;94563.94;;;21.73
30001;BMP280;16845;48.670;9.000;2024-01-16T13:03:18;94558.41;;;20.38
30001;BMP280;16845;48.670;9.000;2024-01-16T13:05:55;94549.09;;;17.88
30001;BMP280;16845;48.670;9.000;2024-01-16T13:08:21;94554.00;;;19.46
30001;BMP280;16845;48.670;9.000;2024-01-16T13:11:02;94552.16;;;17.69
30001;BMP280;16845;48.670;9.000;2024-01-16T13:13:28;94552.09;;;16.86
30001;BMP280;16845;48.670;9.000;2024-01-16T13:15:56;94546.53;;;18.68
30001;BMP280;16845;48.670;9.000;2024-01-16T13:18:24;94548.28;;;17.17
30001;BMP280;16845;48.670;9.000;2024-01-16T13:20:54;94550.00;;;16.68
30001;BMP280;16845;48.670;9.000;2024-01-16T13:23:21;94556.66;;;16.32
30001;BMP280;16845;48.670;9.000;2024-01-16T13:25:48;94567.59;;;14.87
30001;BMP280;16845;48.670;9.000;2024-01-16T13:28:16;94562.03;;;14.82
30001;BMP280;16845;48.670;9.000;2024-01-16T13:30:42;94553.13;;;15.17
30001;BMP280;16845;48.670;9.000;2024-01-16T13:33:13;94556.34;;;15.33
30001;BMP280;16845;48.670;9.000;2024-01-16T13:35:41;94549.59;;;14.65
30001;BMP280;16845;48.670;9.000;2024-01-16T13:38:09;94547.31;;;13.15
30001;BMP280;16845;48.670;9.000;2024-01-16T13:40:37;94543.41;;;13.25
30001;BMP280;16845;48.670;9.000;2024-01-16T13:43:04;94534.91;;;13.12
30001;BMP280;16845;48.670;9.000;2024-01-16T13:45:30;94539.47;;;13.80
30001;BMP280;16845;48.670;9.000;2024-01-16T13:47:57;94527.31;;;13.43
30001;BMP280;16845;48.670;9.000;2024-01-16T13:50:24;94533.84;;;12.22
30001;BMP280;16845;48.670;9.000;2024-01-16T13:52:50;94532.91;;;11.90
30001;BMP280;16845;48.670;9.000;2024-01-16T13:55:19;94538.81;;;11.39
30001;BMP280;16845;48.670;9.000;2024-01-16T13:57:45;94544.00;;;10.82
30001;BMP280;16845;48.670;9.000;2024-01-16T14:00:13;94547.50;;;10.22
30001;BMP280;16845;48.670;9.000;2024-01-16T14:02:40;94543.69;;;10.14
30001;BMP280;16845;48.670;9.000;2024-01-16T14:05:07;94536.56;;;9.45
30001;BMP280;16845;48.670;9.000;2024-01-16T14:07:34;94533.78;;;9.91
30001;BMP280;16845;48.670;9.000;2024-01-16T14:10:01;94538.31;;;9.22
30001;BMP280;16845;48.670;9.000;2024-01-16T14:12:33;94535.13;;;8.31
30001;BMP280;16845;48.670;9.000;2024-01-16T14:14:59;94539.19;;;8.10
30001;BMP280;16845;48.670;9.000;2024-01-16T14:17:26;94533.75;;;7.99